Time;durP1;ratioP1;P1;durP2;ratioP2;P2;SDS_P1;SDS_P2;PMS_P1;PMS_P2;Temp;Humidity;BMP_temperature;BMP_pressure;BME280_temperature;BME280_humidity;BME280_pressure;Samples;Min_cycle;Max_cycle;Signal;HPM_P1;HPM_P2
2022/11/30 00:00:25;;;;;;;20.97;11.00;;;6.50;99.90;;;7.22;100.00;98545.66;5043486;28;20499;-83
2022/11/30 00:02:56;;;;;;;27.97;11.63;;;6.40;99.90;;;7.23;100.00;98546.50;5043989;28;20895;-84
2022/11/30 00:05:27;;;;;;;25.63;11.60;;;6.40;99.90;;;7.24;100.00;98551.56;5038488;28;20469;-83
2022/11/30 00:08:00;;;;;;;28.40;10.67;;;6.50;99.90;;;7.24;100.00;98548.94;5040472;28;20515;-84
2022/11/30 00:10:30;;;;;;;23.37;11.97;;;6.40;99.90;;;7.19;100.00;98553.78;5044835;28;20464;-83
2022/11/30 00:13:00;;;;;;;24.20;10.80;;;6.40;99.90;;;7.21;100.00;98554.47;5043851;28;20595;-83
2022/11/30 00:15:29;;;;;;;19.63;10.37;;;6.40;99.90;;;7.21;100.00;98554.47;5042446;28;20473;-83
2022/11/30 00:17:59;;;;;;;30.10;11.73;;;6.40;99.90;;;7.24;100.00;98548.94;5042625;28;20466;-84
2022/11/30 00:20:30;;;;;;;25.27;13.17;;;6.40;99.90;;;7.26;100.00;98543.56;5041297;28;20560;-83
2022/11/30 00:23:00;;;;;;;22.80;11.50;;;6.50;99.90;;;7.26;100.00;98546.19;5040367;28;21284;-83
2022/11/30 00:25:31;;;;;;;25.37;11.17;;;6.50;99.90;;;7.27;100.00;98558.22;5039686;28;20469;-84
2022/11/30 00:28:02;;;;;;;22.00;11.90;;;6.40;99.90;;;7.26;100.00;98556.56;5043363;28;21294;-83
2022/11/30 00:30:32;;;;;;;34.70;11.40;;;6.50;99.90;;;7.22;100.00;98553.47;5041797;28;20473;-83
2022/11/30 00:33:01;;;;;;;23.03;10.90;;;6.40;99.90;;;7.20;100.00;98544.19;5043199;28;20489;-84
2022/11/30 00:35:32;;;;;;;26.70;12.07;;;6.40;99.90;;;7.23;100.00;98552.50;5042330;28;20488;-83
2022/11/30 00:38:03;;;;;;;27.23;12.80;;;6.50;99.90;;;7.21;100.00;98551.84;5043650;28;20548;-84
2022/11/30 00:40:33;;;;;;;25.63;11.03;;;6.40;99.90;;;7.23;100.00;98551.69;5041215;28;20904;-83
2022/11/30 00:43:02;;;;;;;25.60;11.90;;;6.50;99.90;;;7.24;100.00;98541.16;5039490;28;20534;-84
2022/11/30 00:45:31;;;;;;;30.40;12.70;;;6.50;99.90;;;7.26;100.00;98547.00;5039697;28;20473;-83
2022/11/30 00:48:01;;;;;;;28.23;11.87;;;6.60;99.90;;;7.26;100.00;98539.19;5044523;28;20543;-83
2022/11/30 00:50:32;;;;;;;32.03;11.00;;;6.50;99.90;;;7.27;100.00;98546.03;5041133;28;20526;-83
2022/11/30 00:53:01;;;;;;;24.77;10.70;;;6.50;99.90;;;7.27;100.00;98547.81;5042323;28;20477;-84
2022/11/30 00:55:30;;;;;;;27.73;12.87;;;6.50;99.90;;;7.26;100.00;98547.00;5042018;28;20466;-84
2022/11/30 00:57:59;;;;;;;24.33;11.10;;;6.50;99.90;;;7.25;100.00;98545.38;5042048;28;20464;-84
2022/11/30 01:00:29;;;;;;;24.23;12.27;;;6.50;99.90;;;7.25;100.00;98548.00;5041891;28;21476;-84
2022/11/30 01:02:59;;;;;;;32.03;12.60;;;6.50;99.90;;;7.24;100.00;98540.31;5042479;28;20465;-84
2022/11/30 01:05:29;;;;;;;27.53;10.70;;;6.30;99.90;;;7.21;100.00;98538.84;5043076;28;20469;-84
2022/11/30 01:08:02;;;;;;;24.67;12.20;;;6.50;99.90;;;7.14;100.00;98539.63;5039211;28;20598;-84
2022/11/30 01:10:32;;;;;;;23.60;11.77;;;6.40;99.90;;;7.17;100.00;98536.72;5042342;28;20470;-84
2022/11/30 01:13:02;;;;;;;26.23;12.43;;;6.50;99.90;;;7.15;100.00;98539.44;5040857;28;20540;-83
2022/11/30 01:15:31;;;;;;;27.10;11.87;;;6.50;99.90;;;7.15;100.00;98536.84;5041044;28;21007;-83
2022/11/30 01:18:00;;;;;;;32.40;11.60;;;6.40;99.90;;;7.14;100.00;98543.03;5044861;28;21507;-84
2022/11/30 01:20:29;;;;;;;28.80;12.73;;;6.40;99.90;;;7.11;100.00;98538.16;5047553;28;20472;-84
2022/11/30 01:22:59;;;;;;;31.20;11.90;;;6.30;99.90;;;7.08;100.00;98543.63;5050615;28;20495;-83
2022/11/30 01:25:29;;;;;;;24.40;12.30;;;6.30;99.90;;;7.08;100.00;98543.63;5043605;28;20479;-83
2022/11/30 01:27:59;;;;;;;28.47;11.30;;;6.30;99.90;;;7.08;100.00;98539.25;5050152;28;20873;-84
2022/11/30 01:30:29;;;;;;;30.03;13.37;;;6.30;99.90;;;7.08;100.00;98533.22;5048872;28;20460;-83
2022/11/30 01:33:03;;;;;;;24.73;12.00;;;6.30;99.90;;;7.08;100.00;98533.22;5047168;28;21739;-84
2022/11/30 01:35:31;;;;;;;21.97;10.60;;;6.30;99.90;;;7.09;100.00;98534.88;5049408;28;20459;-84
2022/11/30 01:38:02;;;;;;;24.90;11.80;;;6.30;99.90;;;7.07;100.00;98539.41;5047026;28;20812;-84
2022/11/30 01:40:33;;;;;;;29.90;12.03;;;6.30;99.90;;;7.07;100.00;98536.81;5048297;28;20468;-84
2022/11/30 01:43:02;;;;;;;23.80;11.10;;;6.30;99.90;;;7.08;100.00;98536.66;5050823;28;20464;-84
2022/11/30 01:45:31;;;;;;;26.40;12.13;;;6.30;99.90;;;7.06;100.00;98529.97;5049093;28;21014;-84
2022/11/30 01:48:02;;;;;;;23.93;11.03;;;6.30;99.90;;;7.06;100.00;98530.78;5049833;28;20552;-84
2022/11/30 01:50:36;;;;;;;24.23;10.50;;;6.30;99.90;;;7.06;100.00;98528.19;5046955;28;20986;-84
2022/11/30 01:53:11;;;;;;;25.33;11.63;;;6.30;99.90;;;7.06;100.00;98536.00;5046582;28;20526;-84
2022/11/30 01:55:48;;;;;;;25.17;10.40;;;6.30;99.90;;;7.07;100.00;98534.22;5044971;28;20798;-85
2022/11/30 01:58:25;;;;;;;22.10;11.00;;;6.30;99.90;;;7.06;100.00;98533.41;5048201;28;20475;-83
2022/11/30 02:00:55;;;;;;;29.07;10.73;;;6.30;99.90;;;7.04;100.00;98537.94;5045162;28;21228;-84
2022/11/30 02:03:35;;;;;;;22.03;11.20;;;6.20;99.90;;;7.05;100.00;98539.56;5045828;28;20488;-84
2022/11/30 02:06:05;;;;;;;23.70;10.77;;;6.30;99.90;;;7.03;100.00;98538.09;5044843;28;20582;-84
2022/11/30 02:08:35;;;;;;;35.17;12.83;;;6.20;99.90;;;7.02;100.00;98539.03;5044187;28;20496;-84
2022/11/30 02:11:13;;;;;;;28.40;12.37;;;6.30;99.90;;;7.03;100.00;98545.88;5043869;28;20467;-84
2022/11/30 02:14:12;;;;;;;25.47;12.87;;;6.30;99.90;;;7.04;100.00;98537.94;5043440;28;20492;-84
2022/11/30 02:16:56;;;;;;;23.40;12.20;;;6.30;99.90;;;7.05;100.00;98541.34;5041633;28;20468;-83
2022/11/30 02:20:26;;;;;;;30.53;11.30;;;6.30;99.90;;;7.03;100.00;98540.69;5042395;28;20466;-84
2022/11/30 02:23:41;;;;;;;37.13;10.17;;;6.30;99.90;;;7.04;100.00;98531.91;5025352;28;20468;-83
2022/11/30 02:26:37;;;;;;;22.40;12.00;;;6.30;99.90;;;7.04;100.00;98540.53;5042758;28;20507;-84
2022/11/30 02:29:17;;;;;;;28.67;11.00;;;6.30;99.90;;;7.03;100.00;98540.69;5045059;28;20469;-84
2022/11/30 02:31:54;;;;;;;28.13;10.60;;;6.30;99.90;;;7.04;100.00;98547.53;5045784;28;20463;-84
2022/11/30 02:34:30;;;;;;;28.33;11.47;;;6.30;99.90;;;7.03;100.00;98544.09;5047466;28;21019;-84
2022/11/30 02:37:02;;;;;;;33.07;11.20;;;6.30;99.90;;;7.03;100.00;98540.69;5049541;28;20473;-84
2022/11/30 02:39:31;;;;;;;33.60;12.40;;;6.30;99.90;;;7.01;100.00;98553.03;5046048;28;20487;-82
2022/11/30 02:42:01;;;;;;;26.60;11.63;;;6.20;99.90;;;7.03;100.00;98551.09;5046940;28;20472;-84
2022/11/30 02:44:32;;;;;;;30.10;12.60;;;6.20;99.90;;;7.02;100.00;98537.25;5047611;28;20863;-84
2022/11/30 02:47:17;;;;;;;30.53;12.10;;;6.30;99.90;;;7.05;100.00;98533.53;5046184;28;20561;-84
2022/11/30 02:49:54;;;;;;;29.03;12.47;;;6.20;99.90;;;7.02;100.00;98539.03;5045245;28;20469;-84
2022/11/30 02:52:28;;;;;;;41.63;12.07;;;6.20;99.90;;;7.05;100.00;98541.34;5045126;28;20540;-84
2022/11/30 02:55:01;;;;;;;26.43;11.37;;;6.30;99.90;;;7.06;100.00;98543.78;5044400;28;20546;-84
2022/11/30 02:57:32;;;;;;;29.80;10.50;;;6.30;99.90;;;7.05;100.00;98544.75;5048585;28;20460;-84
2022/11/30 03:00:07;;;;;;;24.03;12.00;;;6.30;99.90;;;7.07;100.00;98547.22;5048871;28;20461;-84
2022/11/30 03:02:36;;;;;;;24.97;10.97;;;6.30;99.90;;;7.09;100.00;98540.06;5048167;28;20473;-83
2022/11/30 03:05:09;;;;;;;25.37;12.47;;;6.30;99.90;;;7.09;100.00;98542.66;5047896;28;20484;-84
2022/11/30 03:07:39;;;;;;;24.70;11.50;;;6.30;99.90;;;7.09;100.00;98540.06;5047028;28;20462;-84
2022/11/30 03:10:12;;;;;;;25.10;12.13;;;6.30;99.90;;;7.09;100.00;98545.25;5047734;28;20839;-83
2022/11/30 03:12:42;;;;;;;19.43;10.70;;;6.30;99.90;;;7.09;100.00;98545.25;5046758;28;20472;-84
2022/11/30 03:15:16;;;;;;;36.13;11.87;;;6.30;99.90;;;7.11;100.00;98551.16;5046901;28;20462;-83
2022/11/30 03:17:47;;;;;;;24.77;12.03;;;6.40;99.90;;;7.06;100.00;98561.19;5048771;28;20464;-83
2022/11/30 03:20:16;;;;;;;24.57;10.63;;;6.30;99.90;;;7.08;100.00;98562.66;5046172;28;20500;-84
2022/11/30 03:22:46;;;;;;;25.23;11.43;;;6.30;99.90;;;7.03;100.00;98561.47;5044382;28;20921;-84
2022/11/30 03:25:21;;;;;;;28.10;11.73;;;6.30;99.90;;;7.07;100.00;98552.41;5045082;28;20476;-83
2022/11/30 03:27:51;;;;;;;24.13;11.13;;;6.30;99.90;;;7.07;100.00;98555.00;5044597;28;20500;-83
2022/11/30 03:30:21;;;;;;;31.03;12.80;;;6.30;99.90;;;7.08;100.00;98560.03;5041713;28;20449;-83
2022/11/30 03:32:51;;;;;;;28.43;11.87;;;6.30;99.90;;;7.09;100.00;98560.88;5040114;28;20504;-84
2022/11/30 03:35:21;;;;;;;24.80;12.30;;;6.40;99.90;;;7.10;100.00;98567.72;5045118;28;20502;-84
2022/11/30 03:37:52;;;;;;;35.80;12.47;;;6.40;99.90;;;7.11;100.00;98564.16;5045802;28;20472;-84
2022/11/30 03:40:21;;;;;;;26.90;12.97;;;6.40;99.90;;;7.12;100.00;98564.94;5044850;28;20548;-84
2022/11/30 03:42:53;;;;;;;21.87;11.27;;;6.40;99.90;;;7.11;100.00;98569.34;5047114;28;20999;-84
2022/11/30 03:45:24;;;;;;;29.80;12.23;;;6.40;99.90;;;7.10;100.00;98567.72;5047086;28;20523;-84
2022/11/30 03:47:55;;;;;;;34.57;12.23;;;6.40;99.90;;;7.07;100.00;98566.25;5044548;28;20461;-83
2022/11/30 03:50:25;;;;;;;29.67;12.20;;;6.30;99.90;;;7.08;100.00;98564.44;5045603;28;20488;-82
2022/11/30 03:52:55;;;;;;;27.67;11.73;;;6.40;99.90;;;7.09;100.00;98568.66;5043232;28;20472;-82
2022/11/30 03:55:24;;;;;;;25.30;12.53;;;6.40;99.90;;;7.13;100.00;98563.97;5043889;28;20496;-82
2022/11/30 03:57:54;;;;;;;32.77;12.90;;;6.40;99.90;;;7.14;100.00;98558.63;5045862;28;20515;-83
2022/11/30 04:00:25;;;;;;;30.43;12.60;;;6.40;99.90;;;7.16;100.00;98567.09;5040225;28;20456;-83
2022/11/30 04:02:55;;;;;;;21.60;10.40;;;6.50;99.90;;;7.16;100.00;98561.88;5043606;28;20472;-82
2022/11/30 04:05:25;;;;;;;24.73;10.33;;;6.50;99.90;;;7.17;100.00;98550.53;5041533;28;20472;-82
2022/11/30 04:07:55;;;;;;;23.23;9.50;;;6.50;99.90;;;7.18;100.00;98553.94;5038898;28;20468;-82
2022/11/30 04:10:24;;;;;;;30.47;11.57;;;6.50;99.90;;;7.18;100.00;98557.38;5043661;28;20971;-81
2022/11/30 04:12:55;;;;;;;47.63;18.60;;;6.40;99.90;;;7.18;100.00;98554.78;5044382;28;20461;-82
2022/11/30 04:15:26;;;;;;;25.93;10.43;;;6.50;99.90;;;7.19;100.00;98558.97;5039442;28;20508;-82
2022/11/30 04:17:55;;;;;;;22.97;9.93;;;6.50;99.90;;;7.19;100.00;98558.16;5042645;28;20469;-82
2022/11/30 04:20:26;;;;;;;27.53;11.77;;;6.50;99.90;;;7.21;100.00;98553.63;5040510;28;20464;-83
2022/11/30 04:22:57;;;;;;;21.90;10.33;;;6.50;99.90;;;7.19;100.00;98548.56;5037939;28;20863;-82
2022/11/30 04:25:27;;;;;;;25.40;10.93;;;6.50;99.90;;;7.19;100.00;98553.78;5039816;28;20477;-82
2022/11/30 04:27:57;;;;;;;16.73;9.70;;;6.50;99.90;;;7.18;100.00;98546.97;5042526;28;20546;-83
2022/11/30 04:30:29;;;;;;;24.87;11.13;;;6.50;99.90;;;7.19;100.00;98552.97;5040637;28;20465;-82
2022/11/30 04:32:59;;;;;;;27.37;11.43;;;6.50;99.90;;;7.19;100.00;98551.19;5041471;28;20469;-83
2022/11/30 04:35:28;;;;;;;27.60;11.03;;;6.50;99.90;;;7.20;100.00;98557.19;5039695;28;20497;-82
2022/11/30 04:37:58;;;;;;;26.23;11.27;;;6.50;99.90;;;7.20;100.00;98552.00;5042915;28;20509;-83
2022/11/30 04:40:28;;;;;;;28.33;11.10;;;6.50;99.90;;;7.20;100.00;98555.41;5044003;28;20548;-82
2022/11/30 04:42:57;;;;;;;30.77;10.30;;;6.50;99.90;;;7.20;100.00;98557.19;5043493;28;20473;-82
2022/11/30 04:45:28;;;;;;;22.07;10.87;;;6.50;99.90;;;7.21;100.00;98564.03;5042840;28;20460;-82
2022/11/30 04:48:04;;;;;;;27.10;10.90;;;6.50;99.90;;;7.21;100.00;98567.47;5044202;28;20482;-82
2022/11/30 04:50:33;;;;;;;25.23;10.37;;;6.40;99.90;;;7.21;100.00;98556.25;5041910;28;20484;-82
2022/11/30 04:53:02;;;;;;;35.70;11.07;;;6.50;99.90;;;7.21;100.00;98559.66;5044436;28;20485;-82
2022/11/30 04:55:32;;;;;;;30.20;10.87;;;6.50;99.90;;;7.21;100.00;98562.25;5043334;28;20500;-82
2022/11/30 04:58:01;;;;;;;21.33;10.43;;;6.40;99.90;;;7.21;100.00;98557.06;5045642;28;20460;-83
2022/11/30 05:00:32;;;;;;;28.03;9.97;;;6.50;99.90;;;7.23;100.00;98562.09;5041187;28;21041;-82
2022/11/30 05:03:02;;;;;;;31.90;11.13;;;6.50;99.90;;;7.23;100.00;98567.28;5042275;28;20535;-82
2022/11/30 05:05:34;;;;;;;20.53;10.10;;;6.50;99.90;;;7.22;100.00;98569.06;5042522;28;20469;-82
2022/11/30 05:08:03;;;;;;;27.37;12.20;;;6.50;99.90;;;7.22;100.00;98563.88;5043332;28;20891;-83
2022/11/30 05:10:33;;;;;;;22.53;10.43;;;6.50;99.90;;;7.24;100.00;98564.56;5040942;28;20456;-82
2022/11/30 05:13:02;;;;;;;22.80;9.37;;;6.50;99.90;;;7.24;100.00;98571.53;5039676;28;20901;-82
2022/11/30 05:15:32;;;;;;;26.20;11.47;;;6.50;99.90;;;7.26;100.00;98572.19;5043188;28;20493;-83
2022/11/30 05:18:03;;;;;;;22.30;10.33;;;6.60;99.90;;;7.24;100.00;98569.75;5041780;28;20841;-83
2022/11/30 05:20:35;;;;;;;20.97;10.33;;;6.50;99.90;;;7.25;100.00;98575.78;5040118;28;20471;-83
2022/11/30 05:23:05;;;;;;;23.00;10.73;;;6.60;99.90;;;7.25;100.00;98561.00;5043233;28;20489;-83
2022/11/30 05:25:35;;;;;;;22.40;9.80;;;6.50;99.90;;;7.25;100.00;98567.97;5042779;28;20457;-82
2022/11/30 05:28:05;;;;;;;20.57;9.97;;;6.50;99.90;;;7.26;100.00;98562.59;5044122;28;20544;-82
2022/11/30 05:30:35;;;;;;;21.07;9.60;;;6.50;99.90;;;7.26;100.00;98562.59;5042796;28;20850;-83
2022/11/30 05:33:04;;;;;;;26.17;10.60;;;6.50;99.90;;;7.25;100.00;98566.19;5044765;28;21032;-83
2022/11/30 05:35:34;;;;;;;26.90;10.63;;;6.50;99.90;;;7.27;100.00;98568.63;5043028;28;21013;-82
2022/11/30 05:38:04;;;;;;;27.20;12.50;;;6.50;99.90;;;7.27;100.00;98569.44;5046842;28;20464;-82
2022/11/30 05:40:33;;;;;;;18.50;10.17;;;6.50;99.90;;;7.30;100.00;98576.94;5044710;28;20947;-82
2022/11/30 05:43:04;;;;;;;25.47;9.83;;;6.60;99.90;;;7.29;100.00;98580.50;5045594;28;20461;-81
2022/11/30 05:45:36;;;;;;;20.80;10.20;;;6.60;99.90;;;7.27;100.00;98579.03;5044280;28;20460;-82
2022/11/30 05:48:07;;;;;;;16.57;8.97;;;6.50;99.90;;;7.26;100.00;98580.00;5044006;28;20475;-82
2022/11/30 05:50:37;;;;;;;16.30;8.50;;;6.60;99.90;;;7.24;100.00;98574.97;5044066;28;20491;-82
2022/11/30 05:53:07;;;;;;;18.80;10.40;;;6.50;99.90;;;7.23;100.00;98575.91;5041903;28;21051;-82
2022/11/30 05:55:36;;;;;;;19.27;9.67;;;6.50;99.90;;;7.24;100.00;98576.75;5045616;28;20505;-82
2022/11/30 05:58:05;;;;;;;24.77;11.43;;;6.50;99.90;;;7.22;100.00;98576.88;5045111;28;20461;-82
2022/11/30 06:00:36;;;;;;;31.10;11.23;;;6.50;99.90;;;7.24;100.00;98580.16;5046170;28;20955;-81
2022/11/30 06:03:05;;;;;;;20.30;9.97;;;6.40;99.90;;;7.24;100.00;98580.16;5047235;28;20456;-82
2022/11/30 06:05:35;;;;;;;19.30;9.53;;;6.50;99.90;;;7.22;100.00;98582.06;5046409;28;20544;-81
2022/11/30 06:08:06;;;;;;;28.83;9.87;;;6.40;99.90;;;7.24;100.00;98585.34;5048457;28;20463;-82
2022/11/30 06:10:36;;;;;;;22.37;10.00;;;6.40;99.90;;;7.25;100.00;98581.81;5048611;28;21187;-81
2022/11/30 06:13:08;;;;;;;21.00;9.37;;;6.50;99.90;;;7.26;100.00;98585.19;5048869;28;20553;-82
2022/11/30 06:15:39;;;;;;;18.77;10.20;;;6.50;99.90;;;7.26;100.00;98586.00;5050473;28;20496;-82
2022/11/30 06:18:11;;;;;;;19.40;9.70;;;6.50;99.90;;;7.25;100.00;98581.81;5049827;28;20570;-81
2022/11/30 06:20:40;;;;;;;27.33;11.07;;;6.50;99.90;;;7.26;100.00;98583.41;5048443;28;20463;-81
2022/11/30 06:23:10;;;;;;;22.63;10.47;;;6.50;99.90;;;7.25;100.00;98587.00;5049958;28;20465;-82
2022/11/30 06:25:40;;;;;;;24.80;10.53;;;6.40;99.90;;;7.26;100.00;98580.00;5048922;28;20489;-82
2022/11/30 06:28:10;;;;;;;19.40;10.40;;;6.50;99.90;;;7.25;100.00;98580.97;5051271;28;20583;-82
2022/11/30 06:30:41;;;;;;;20.27;9.23;;;6.50;99.90;;;7.26;100.00;98580.81;5045832;28;20883;-82
2022/11/30 06:33:10;;;;;;;23.10;10.17;;;6.50;99.90;;;7.26;100.00;98590.38;5046207;28;20543;-82
2022/11/30 06:35:46;;;;;;;20.63;10.17;;;6.60;99.90;;;7.28;100.00;98585.88;5042890;28;20559;-82
2022/11/30 06:38:15;;;;;;;20.83;9.73;;;6.50;99.90;;;7.28;100.00;98591.91;5043511;28;20461;-82
2022/11/30 06:40:45;;;;;;;24.63;9.70;;;6.60;99.90;;;7.28;100.00;98591.06;5045591;28;20535;-81
2022/11/30 06:43:14;;;;;;;18.70;9.07;;;6.60;99.90;;;7.28;100.00;98597.09;5043460;28;20465;-81
2022/11/30 06:45:46;;;;;;;19.87;10.17;;;6.60;99.90;;;7.30;100.00;98589.94;5043650;28;20543;-81
2022/11/30 06:48:15;;;;;;;18.27;8.43;;;6.60;99.90;;;7.30;100.00;98592.53;5041239;28;20482;-81
2022/11/30 06:50:48;;;;;;;20.67;10.70;;;6.60;99.90;;;7.32;100.00;98602.81;5043010;28;20463;-82
2022/11/30 06:53:19;;;;;;;26.70;10.03;;;6.60;99.90;;;7.32;100.00;98598.44;5041373;28;20485;-81
2022/11/30 06:55:49;;;;;;;21.43;10.20;;;6.60;99.90;;;7.32;100.00;98598.44;5041663;28;20580;-82
2022/11/30 06:58:18;;;;;;;19.87;9.03;;;6.60;99.90;;;7.32;100.00;98595.81;5041858;28;20457;-82
2022/11/30 07:00:50;;;;;;;21.43;10.23;;;6.50;99.90;;;7.32;100.00;98597.59;5041904;28;20551;-82
2022/11/30 07:03:21;;;;;;;27.33;9.60;;;6.60;99.90;;;7.30;100.00;98595.16;5041261;28;20506;-82
2022/11/30 07:05:53;;;;;;;17.27;8.60;;;6.60;99.90;;;7.32;100.00;98597.59;5042983;28;20563;-82
2022/11/30 07:08:22;;;;;;;20.90;9.33;;;6.60;99.90;;;7.33;100.00;98602.63;5044848;28;20986;-82
2022/11/30 07:10:52;;;;;;;21.33;9.00;;;6.60;99.90;;;7.33;100.00;98605.25;5045237;28;20465;-82
2022/11/30 07:13:21;;;;;;;21.43;9.93;;;6.60;99.90;;;7.34;100.00;98606.88;5049446;28;20458;-82
2022/11/30 07:15:52;;;;;;;23.37;8.47;;;6.60;99.90;;;7.34;100.00;98606.88;5049417;28;21034;-81
2022/11/30 07:18:22;;;;;;;25.20;8.60;;;6.60;99.90;;;7.30;100.00;98605.56;5050242;28;20465;-81
2022/11/30 07:21:00;;;;;;;19.23;8.07;;;6.60;99.90;;;7.32;100.00;98608.84;5048715;28;20488;-82
2022/11/30 07:26:25;;;;;;;16.40;7.77;;;6.50;99.90;;;7.35;100.00;98605.94;5049989;28;20465;-82
2022/11/30 07:28:57;;;;;;;18.43;7.60;;;6.60;99.90;;;7.36;100.00;98615.34;5049124;28;20454;-82
2022/11/30 07:31:30;;;;;;;14.13;8.43;;;6.60;99.90;;;7.37;100.00;98614.38;5049433;28;20568;-82
2022/11/30 07:34:05;;;;;;;14.37;7.63;;;6.60;99.90;;;7.35;100.00;98613.72;5048801;28;20540;-82
2022/11/30 07:36:36;;;;;;;10.10;6.50;;;6.60;99.90;;;7.37;100.00;98611.78;5049009;28;20500;-82
2022/11/30 07:39:06;;;;;;;12.53;6.30;;;6.70;99.90;;;7.37;100.00;98616.16;5047927;28;20492;-82
2022/11/30 07:41:35;;;;;;;10.20;6.50;;;6.70;99.90;;;7.38;100.00;98613.41;5046959;28;20499;-81
2022/11/30 07:44:05;;;;;;;8.97;5.43;;;6.70;99.90;;;7.42;100.00;98622.56;5047731;28;20547;-82
2022/11/30 07:46:37;;;;;;;10.30;5.50;;;6.80;99.90;;;7.41;100.00;98618.31;5047617;28;20462;-82
2022/11/30 07:49:09;;;;;;;8.67;5.57;;;6.90;99.90;;;7.41;100.00;98627.91;5044556;28;20464;-82
2022/11/30 07:51:39;;;;;;;7.80;5.50;;;6.80;99.90;;;7.41;100.00;98626.13;5041801;28;20601;-82
2022/11/30 07:54:08;;;;;;;9.20;4.97;;;6.80;99.90;;;7.44;100.00;98622.38;5044989;28;20560;-82
2022/11/30 07:56:38;;;;;;;7.30;4.77;;;6.80;99.90;;;7.43;100.00;98625.94;5044746;28;20499;-81
2022/11/30 07:59:08;;;;;;;9.07;4.77;;;6.80;99.90;;;7.43;100.00;98626.78;5048005;28;20536;-82
2022/11/30 08:01:39;;;;;;;7.50;4.83;;;6.80;99.90;;;7.43;100.00;98620.75;5046273;28;20508;-82
2022/11/30 08:04:12;;;;;;;10.73;4.63;;;6.90;99.90;;;7.42;100.00;98625.16;5049281;28;20967;-82
2022/11/30 08:06:43;;;;;;;4.97;3.90;;;6.80;99.90;;;7.38;100.00;98626.44;5048778;28;20462;-82
2022/11/30 08:09:12;;;;;;;8.70;4.40;;;6.80;99.90;;;7.43;100.00;98629.38;5047843;28;20461;-82
2022/11/30 08:11:50;;;;;;;5.67;4.00;;;6.90;99.90;;;7.44;100.00;98628.41;5041787;28;21063;-82
2022/11/30 08:14:20;;;;;;;8.77;5.03;;;6.90;99.90;;;7.45;100.00;98614.44;5040685;28;20471;-82
2022/11/30 08:16:51;;;;;;;5.30;4.23;;;6.90;99.90;;;7.40;100.00;98627.06;5040272;28;20677;-81
2022/11/30 08:19:20;;;;;;;6.00;4.27;;;6.90;99.90;;;7.40;100.00;98621.88;5039990;28;20462;-82
2022/11/30 08:21:49;;;;;;;7.97;5.33;;;6.90;99.90;;;7.43;100.00;98629.38;5039856;28;20501;-82
2022/11/30 08:24:19;;;;;;;5.10;4.57;;;6.90;99.90;;;7.47;100.00;98622.91;5041732;28;20461;-82
2022/11/30 08:26:52;;;;;;;6.50;4.47;;;6.90;99.90;;;7.49;100.00;98626.19;5041395;28;20499;-82
2022/11/30 08:29:22;;;;;;;8.47;4.90;;;6.90;99.90;;;7.48;100.00;98637.56;5045107;28;20466;-81
2022/11/30 08:31:53;;;;;;;6.60;4.73;;;6.90;99.90;;;7.52;100.00;98632.84;5045852;28;20465;-82
2022/11/30 09:32:24;;;;;;;8.93;5.23;;;7.20;99.90;;;7.76;100.00;98653.00;4995126;28;20462;-82
2022/11/30 09:34:54;;;;;;;10.87;4.83;;;7.20;99.90;;;7.78;100.00;98664.88;5045839;28;20813;-82
2022/11/30 09:37:24;;;;;;;8.43;5.73;;;7.30;99.90;;;7.81;100.00;98658.56;5044570;28;20936;-82
2022/11/30 09:39:54;;;;;;;9.60;5.27;;;7.40;99.90;;;7.84;100.00;98663.47;5044750;28;20552;-82
2022/11/30 09:42:44;;;;;;;10.90;7.00;;;7.40;99.90;;;7.85;100.00;98652.06;5047673;28;20559;-82
2022/11/30 09:45:19;;;;;;;9.40;5.67;;;7.40;99.90;;;7.86;100.00;98662.34;5048640;28;20454;-82
2022/11/30 09:48:21;;;;;;;8.77;5.93;;;7.40;99.90;;;7.88;100.00;98660.38;5050221;28;20465;-81
2022/11/30 09:50:54;;;;;;;8.00;5.40;;;7.50;99.90;;;7.90;100.00;98665.44;5051149;28;20471;-82
2022/11/30 09:53:33;;;;;;;7.87;5.73;;;7.40;99.90;;;7.87;100.00;98653.56;5051402;28;20488;-82
2022/11/30 09:56:15;;;;;;;9.37;5.90;;;7.40;99.90;;;7.90;100.00;98655.84;5051582;28;20484;-81
2022/11/30 09:58:50;;;;;;;10.93;6.40;;;7.40;99.90;;;7.92;100.00;98653.06;5043673;28;20907;-82
2022/11/30 10:01:22;;;;;;;7.97;5.30;;;7.50;99.90;;;7.92;100.00;98655.69;5043538;28;20469;-82
2022/11/30 10:03:53;;;;;;;7.00;5.37;;;7.50;99.90;;;7.93;100.00;98654.72;5044737;28;20480;-81
2022/11/30 10:06:36;;;;;;;8.33;5.60;;;7.50;99.90;;;7.94;100.00;98658.97;5044277;28;20465;-81
2022/11/30 10:09:34;;;;;;;9.70;6.00;;;7.50;99.90;;;7.92;100.00;98653.91;5043608;28;20461;-82
2022/11/30 10:12:12;;;;;;;8.97;6.57;;;7.40;99.90;;;7.96;100.00;98659.63;5043034;28;20473;-82
2022/11/30 10:15:03;;;;;;;11.07;5.73;;;7.50;99.90;;;8.02;100.00;98653.78;5043432;28;20510;-81
2022/11/30 10:17:47;;;;;;;11.00;5.83;;;7.60;99.90;;;8.00;100.00;98653.13;5044826;28;21038;-82
2022/11/30 10:21:03;;;;;;;11.53;6.10;;;7.60;99.90;;;8.03;100.00;98645.00;5042966;28;20468;-82
2022/11/30 10:24:25;;;;;;;8.43;5.23;;;7.50;99.90;;;8.03;100.00;98645.00;5043566;28;20464;-82
2022/11/30 10:26:57;;;;;;;10.43;6.67;;;7.60;99.90;;;7.99;100.00;98649.69;5042732;28;20527;-82
2022/11/30 10:29:34;;;;;;;13.57;6.67;;;7.50;99.90;;;8.03;100.00;98645.00;5045201;28;20457;-82
2022/11/30 10:32:18;;;;;;;8.00;5.80;;;7.50;99.90;;;8.07;100.00;98647.16;5041621;28;20977;-82
2022/11/30 10:34:53;;;;;;;14.30;7.70;;;7.60;99.90;;;8.12;100.00;98646.69;5043426;28;20967;-82
2022/11/30 10:37:33;;;;;;;9.90;6.97;;;7.60;99.90;;;8.17;100.00;98641.81;5044577;28;20592;-82
2022/11/30 10:40:13;;;;;;;13.83;6.20;;;7.60;99.90;;;8.21;100.00;98648.34;5043171;28;20492;-82
2022/11/30 10:42:49;;;;;;;8.70;5.90;;;7.60;99.90;;;8.25;100.00;98644.44;5045394;28;20461;-82
2022/11/30 10:45:23;;;;;;;10.83;6.30;;;7.70;99.90;;;8.28;100.00;98643.31;5046882;28;20574;-81
2022/11/30 10:48:04;;;;;;;10.03;5.70;;;7.70;99.90;;;8.30;100.00;98637.00;5049434;28;20461;-81
2022/11/30 10:50:34;;;;;;;11.50;7.47;;;7.80;99.90;;;8.30;100.00;98636.19;5050009;28;20888;-82
2022/11/30 10:53:05;;;;;;;8.90;5.23;;;7.80;99.90;;;8.28;100.00;98638.97;5047709;28;20508;-82
2022/11/30 10:55:41;;;;;;;7.07;5.03;;;7.80;99.90;;;8.29;100.00;98638.00;5048427;28;20469;-82
2022/11/30 10:58:23;;;;;;;9.10;5.47;;;7.80;99.90;;;8.30;100.00;98641.38;5049586;28;20491;-82
2022/11/30 11:01:03;;;;;;;6.53;5.03;;;7.70;99.90;;;8.31;100.00;98638.63;5048639;28;20990;-82
2022/11/30 11:03:33;;;;;;;8.50;5.23;;;7.80;99.90;;;8.32;100.00;98634.25;5049414;28;20473;-82
2022/11/30 11:06:22;;;;;;;7.30;5.10;;;7.80;99.90;;;8.35;100.00;98634.75;5049722;28;20465;-82
2022/11/30 11:08:53;;;;;;;7.53;5.10;;;7.80;99.90;;;8.37;100.00;98635.38;5050261;28;20940;-83
2022/11/30 11:11:38;;;;;;;9.93;5.53;;;7.80;99.90;;;8.38;100.00;98628.41;5047901;28;20549;-82
2022/11/30 11:14:18;;;;;;;8.43;5.63;;;7.80;99.90;;;8.38;100.00;98633.59;5049553;28;20496;-82
2022/11/30 11:16:54;;;;;;;10.10;5.70;;;7.90;99.90;;;8.34;100.00;98627.91;5048991;28;20480;-82
2022/11/30 11:19:32;;;;;;;9.03;5.83;;;7.80;99.90;;;8.36;100.00;98627.75;5047591;28;20511;-82
2022/11/30 11:22:05;;;;;;;6.30;4.30;;;7.80;99.90;;;8.36;100.00;98627.75;5050133;28;20462;-82
2022/11/30 11:24:37;;;;;;;10.03;5.23;;;7.80;99.90;;;8.37;100.00;98624.16;5048814;28;20557;-82
2022/11/30 11:27:07;;;;;;;7.37;4.70;;;7.80;99.90;;;8.37;100.00;98627.56;5048666;28;20559;-82
2022/11/30 11:29:37;;;;;;;8.40;5.83;;;7.80;99.90;;;8.40;100.00;98629.84;5048364;28;20967;-82
2022/11/30 11:32:37;;;;;;;8.27;4.97;;;7.90;99.90;;;8.41;100.00;98623.69;5047835;28;20476;-82
2022/11/30 11:35:37;;;;;;;7.63;5.00;;;7.90;99.90;;;8.43;100.00;98621.75;5046700;28;20552;-82
2022/11/30 11:38:25;;;;;;;8.40;5.60;;;7.90;99.90;;;8.45;100.00;98627.59;5049577;28;20492;-82
2022/11/30 11:41:01;;;;;;;7.13;4.90;;;7.90;99.90;;;8.45;100.00;98624.19;5050056;28;20472;-82
2022/11/30 11:43:33;;;;;;;9.37;5.27;;;7.90;99.90;;;8.47;100.00;98615.22;5045767;28;20452;-82